Terminal Aerodrome Forecast
Issued by NWS Wilmington, NC

Home | Current Version | Previous Version | Text Only | Print | Product List | Glossary On
Versions: 1 2 3 4 5 6 7 8 9 10 11 12
667
FTUS42 KILM 261128
TAFILM
TAF
KILM 261128Z 2612/2712 24008KT P6SM SCT025
     FM261800 19012KT P6SM FEW030
     FM270100 22006KT P6SM SKC=

USA.gov is the U.S. government's official web portal to all federal, state and local government web resources and services.